createdAt,value
2018-05-12T00:01:52.771Z,16.10
2018-05-12T00:04:22.001Z,15.60
2018-05-12T00:06:51.262Z,15.50
2018-05-12T00:09:19.722Z,15.50
2018-05-12T00:11:48.948Z,15.70
2018-05-12T00:14:18.188Z,15.40
2018-05-12T00:16:46.749Z,15.40
2018-05-12T00:19:16.003Z,15.80
2018-05-12T00:21:45.346Z,15.80
2018-05-12T00:24:13.999Z,15.80
2018-05-12T00:26:42.701Z,15.60
2018-05-12T00:29:11.388Z,15.30
2018-05-12T00:31:40.279Z,14.90
2018-05-12T00:34:09.853Z,14.70
2018-05-12T00:36:39.522Z,14.50
2018-05-12T00:39:08.414Z,14.40
2018-05-12T00:41:37.087Z,14.30
2018-05-12T00:44:05.618Z,14.30
2018-05-12T00:46:34.137Z,14.20
2018-05-12T00:49:02.600Z,14.40
2018-05-12T00:51:31.802Z,15.20
2018-05-12T00:54:00.335Z,15.20
2018-05-12T00:56:28.931Z,15.30
2018-05-12T00:58:57.973Z,15.20
2018-05-12T01:01:26.856Z,14.50
2018-05-12T01:03:55.383Z,14.20
2018-05-12T01:06:23.803Z,14.20
2018-05-12T01:08:52.264Z,14.00
2018-05-12T01:11:20.689Z,13.90
2018-05-12T01:13:49.949Z,14.10
2018-05-12T01:16:18.384Z,14.10
2018-05-12T01:18:46.817Z,14.10
2018-05-12T01:21:16.017Z,13.80
2018-05-12T01:23:44.437Z,13.80
2018-05-12T01:26:13.666Z,13.90
2018-05-12T01:28:42.143Z,13.80
2018-05-12T01:31:10.682Z,13.90
2018-05-12T01:33:39.223Z,13.70
2018-05-12T01:36:07.922Z,13.70
2018-05-12T01:38:36.701Z,14.00
2018-05-12T01:41:06.397Z,14.30
2018-05-12T01:43:35.046Z,14.30
2018-05-12T01:46:04.398Z,14.40
2018-05-12T01:48:32.906Z,14.40
2018-05-12T01:51:01.405Z,14.50
2018-05-12T01:53:30.864Z,14.80
2018-05-12T01:55:59.343Z,14.80
2018-05-12T01:58:28.590Z,14.80
2018-05-12T02:00:57.086Z,14.70
2018-05-12T02:03:25.581Z,14.50
2018-05-12T02:05:54.048Z,14.20
2018-05-12T02:08:22.491Z,13.90
2018-05-12T02:10:51.710Z,13.30
2018-05-12T02:13:20.128Z,13.30
2018-05-12T02:15:48.617Z,13.10
2018-05-12T02:18:17.816Z,13.30
2018-05-12T02:20:46.237Z,13.30
2018-05-12T02:23:14.680Z,13.50
2018-05-12T02:25:43.200Z,13.20
2018-05-12T02:28:11.683Z,13.10
2018-05-12T02:30:40.184Z,13.10
2018-05-12T02:33:08.828Z,13.00
2018-05-12T02:35:38.331Z,12.90
2018-05-12T02:38:07.071Z,12.90
2018-05-12T02:40:36.613Z,13.40
2018-05-12T02:43:06.382Z,13.20
2018-05-12T02:45:35.781Z,13.20
2018-05-12T02:48:04.344Z,13.20
2018-05-12T02:50:32.847Z,12.70
2018-05-12T02:53:01.359Z,12.40
2018-05-12T02:55:29.792Z,12.70
2018-05-12T02:57:58.294Z,13.20
2018-05-12T03:00:26.800Z,13.20
2018-05-12T03:02:55.321Z,12.70
2018-05-12T03:05:23.805Z,12.50
2018-05-12T03:07:52.273Z,12.30
2018-05-12T03:10:20.785Z,12.20
2018-05-12T03:12:49.981Z,12.20
2018-05-12T03:15:18.421Z,12.20
2018-05-12T03:17:46.857Z,12.60
2018-05-12T03:20:15.278Z,12.50
2018-05-12T03:22:43.785Z,12.70
2018-05-12T03:25:12.280Z,12.30
2018-05-12T03:27:40.779Z,12.10
2018-05-12T03:30:09.412Z,12.30
2018-05-12T03:32:38.095Z,12.60
2018-05-12T03:35:06.834Z,12.40
2018-05-12T03:37:36.320Z,12.00
2018-05-12T03:40:04.885Z,11.90
2018-05-12T03:42:34.159Z,11.80
2018-05-12T03:45:02.608Z,11.80
2018-05-12T03:47:31.095Z,11.80
2018-05-12T03:49:59.515Z,11.90
2018-05-12T03:52:28.037Z,12.30
2018-05-12T03:54:56.548Z,12.20
2018-05-12T03:57:25.809Z,12.50
2018-05-12T03:59:54.405Z,12.50
2018-05-12T04:02:22.790Z,12.40
2018-05-12T04:05:09.069Z,12.50
2018-05-12T04:07:55.285Z,12.40
2018-05-12T04:13:30.732Z,12.40
2018-05-12T04:15:59.208Z,12.40
2018-05-12T04:18:28.488Z,12.20
2018-05-12T04:20:57.106Z,12.20
2018-05-12T04:23:26.549Z,11.80
2018-05-12T04:25:55.001Z,11.80
2018-05-12T04:28:23.492Z,11.80
2018-05-12T04:30:51.941Z,11.70
2018-05-12T04:33:20.373Z,11.70
2018-05-12T04:35:49.586Z,11.90
2018-05-12T04:38:18.751Z,12.00
2018-05-12T04:40:47.195Z,11.90
2018-05-12T04:43:15.657Z,11.80
2018-05-12T04:45:44.111Z,11.90
2018-05-12T04:48:12.608Z,11.80
2018-05-12T04:50:41.240Z,11.80
2018-05-12T04:53:10.781Z,11.90
2018-05-12T04:55:40.396Z,12.20
2018-05-12T04:58:09.326Z,12.20
2018-05-12T05:00:38.243Z,12.30
2018-05-12T05:03:07.383Z,12.40
2018-05-12T05:05:36.263Z,12.60
2018-05-12T05:08:04.949Z,12.60
2018-05-12T05:10:33.485Z,12.80
2018-05-12T05:13:02.030Z,12.80
2018-05-12T05:15:30.523Z,12.80
2018-05-12T05:17:59.088Z,12.90
2018-05-12T05:20:27.641Z,13.00
2018-05-12T05:22:56.427Z,12.90
2018-05-12T05:25:26.061Z,13.10
2018-05-12T05:27:54.971Z,13.10
2018-05-12T05:30:23.678Z,13.10
2018-05-12T05:32:53.267Z,13.20
2018-05-12T05:35:22.485Z,13.20
2018-05-12T05:37:51.286Z,13.20
2018-05-12T05:40:20.426Z,13.30
2018-05-12T05:42:48.919Z,13.30
2018-05-12T05:45:17.365Z,13.30
2018-05-12T05:47:45.840Z,13.50
2018-05-12T05:50:14.512Z,13.60
2018-05-12T05:52:43.003Z,13.50
2018-05-12T05:55:11.582Z,13.60
2018-05-12T05:57:40.112Z,13.80
2018-05-12T06:00:09.348Z,13.90
2018-05-12T06:02:37.769Z,13.80
2018-05-12T06:05:06.243Z,14.00
2018-05-12T06:07:34.665Z,14.10
2018-05-12T06:10:03.102Z,14.10
2018-05-12T06:12:31.555Z,14.10
2018-05-12T06:15:00.021Z,14.10
2018-05-12T06:17:28.492Z,14.20
2018-05-12T06:19:58.059Z,14.50
2018-05-12T06:22:26.841Z,14.50
2018-05-12T06:24:55.762Z,14.60
2018-05-12T06:27:24.824Z,14.70
2018-05-12T06:29:53.819Z,14.70
2018-05-12T06:32:23.550Z,14.60
2018-05-12T06:34:53.289Z,14.70
2018-05-12T06:37:22.261Z,14.70
2018-05-12T06:39:50.843Z,14.70
2018-05-12T06:42:19.772Z,14.80
2018-05-12T06:44:48.294Z,14.90
2018-05-12T06:47:16.746Z,15.00
2018-05-12T06:49:45.257Z,15.00
2018-05-12T06:52:13.779Z,15.10
2018-05-12T06:54:42.335Z,15.20
2018-05-12T06:57:11.635Z,15.30
2018-05-12T06:59:40.115Z,15.30
2018-05-12T07:02:08.609Z,15.30
2018-05-12T07:04:37.141Z,15.40
2018-05-12T07:07:05.648Z,15.50
2018-05-12T07:09:34.315Z,15.70
2018-05-12T07:12:02.959Z,15.80
2018-05-12T07:14:31.720Z,15.80
2018-05-12T07:17:00.994Z,15.90
2018-05-12T07:19:29.503Z,15.90
2018-05-12T07:21:57.921Z,16.00
2018-05-12T07:24:26.475Z,16.20
2018-05-12T07:26:55.699Z,16.50
2018-05-12T07:29:24.917Z,16.80
2018-05-12T07:31:54.126Z,16.90
2018-05-12T07:34:22.572Z,16.90
2018-05-12T07:36:51.028Z,16.80
2018-05-12T07:39:19.632Z,16.80
2018-05-12T07:41:48.274Z,17.00
2018-05-12T07:44:17.097Z,17.00
2018-05-12T07:46:45.903Z,17.20
2018-05-12T07:49:14.848Z,17.30
2018-05-12T07:51:43.921Z,17.40
2018-05-12T07:54:12.802Z,17.50
2018-05-12T07:56:42.768Z,17.80
2018-05-12T07:59:12.589Z,18.20
2018-05-12T08:01:41.904Z,18.20
2018-05-12T08:04:10.421Z,18.20
2018-05-12T08:06:39.009Z,18.40
2018-05-12T08:09:08.405Z,18.60
2018-05-12T08:11:37.347Z,18.60
2018-05-12T08:14:06.437Z,18.70
2018-05-12T08:16:36.451Z,18.90
2018-05-12T08:19:05.720Z,19.10
2018-05-12T08:21:34.781Z,19.40
2018-05-12T08:24:04.037Z,19.60
2018-05-12T08:26:33.138Z,19.70
2018-05-12T08:29:03.061Z,19.80
2018-05-12T08:31:32.468Z,19.90
2018-05-12T08:34:01.055Z,20.10
2018-05-12T08:36:29.588Z,20.20
2018-05-12T08:38:58.086Z,20.40
2018-05-12T08:41:26.573Z,20.50
2018-05-12T08:43:55.053Z,20.70
2018-05-12T08:46:23.666Z,20.80
2018-05-12T08:48:53.035Z,20.90
2018-05-12T08:51:21.712Z,20.90
2018-05-12T08:53:51.016Z,21.20
2018-05-12T08:56:20.232Z,21.50
2018-05-12T08:58:48.728Z,21.40
2018-05-12T09:01:17.200Z,21.60
2018-05-12T09:03:45.654Z,21.80
2018-05-12T09:06:14.052Z,21.90
2018-05-12T09:08:42.517Z,21.20
2018-05-12T09:11:11.100Z,21.20
2018-05-12T09:13:40.481Z,21.60
2018-05-12T09:16:09.126Z,21.80
2018-05-12T09:18:38.512Z,22.00
2018-05-12T09:21:07.257Z,22.00
2018-05-12T09:23:35.761Z,22.30
2018-05-12T09:26:04.241Z,22.30
2018-05-12T09:28:32.723Z,22.30
2018-05-12T09:31:01.218Z,22.40
2018-05-12T09:33:29.780Z,22.20
2018-05-12T09:35:58.274Z,22.40
2018-05-12T09:38:26.768Z,23.10
2018-05-12T09:40:55.283Z,23.60
2018-05-12T09:43:23.878Z,23.80
2018-05-12T09:45:52.531Z,24.10
2018-05-12T09:48:22.124Z,24.00
2018-05-12T09:50:51.020Z,24.00
2018-05-12T09:53:20.031Z,23.60
2018-05-12T09:55:48.831Z,23.60
2018-05-12T09:58:17.621Z,23.80
2018-05-12T10:00:46.118Z,24.20
2018-05-12T10:03:14.629Z,24.70
2018-05-12T10:05:43.866Z,25.00
2018-05-12T10:08:13.045Z,25.30
2018-05-12T10:10:41.691Z,25.30
2018-05-12T10:13:10.303Z,25.20
2018-05-12T10:15:38.820Z,25.20
2018-05-12T10:18:07.467Z,25.40
2018-05-12T10:20:36.720Z,25.60
2018-05-12T10:23:05.993Z,25.60
2018-05-12T10:25:34.443Z,25.50
2018-05-12T10:28:02.910Z,25.40
2018-05-12T10:30:31.322Z,24.40
2018-05-12T10:32:59.807Z,24.10
2018-05-12T10:35:28.300Z,24.90
2018-05-12T10:37:57.529Z,24.80
2018-05-12T10:40:26.853Z,24.90
2018-05-12T10:42:55.413Z,24.80
2018-05-12T10:45:24.148Z,24.50
2018-05-12T10:47:52.920Z,24.50
2018-05-12T10:50:21.934Z,24.70
2018-05-12T10:52:50.857Z,24.70
2018-05-12T10:55:19.754Z,25.30
2018-05-12T10:57:48.453Z,25.70
2018-05-12T11:00:17.063Z,25.60
2018-05-12T11:02:45.597Z,25.90
2018-05-12T11:05:14.039Z,25.60
2018-05-12T11:07:42.548Z,26.00
2018-05-12T11:10:11.063Z,26.10
2018-05-12T11:12:39.691Z,26.30
2018-05-12T11:15:09.053Z,26.60
2018-05-12T11:17:37.479Z,26.60
2018-05-12T11:20:05.971Z,27.00
2018-05-12T11:22:34.468Z,27.10
2018-05-12T11:25:03.307Z,27.00
2018-05-12T11:27:32.191Z,27.20
2018-05-12T11:30:01.482Z,27.20
2018-05-12T11:32:30.912Z,27.40
2018-05-12T11:35:00.389Z,27.50
2018-05-12T11:37:29.412Z,26.60
2018-05-12T11:39:58.006Z,26.50
2018-05-12T11:42:26.568Z,25.90
2018-05-12T11:44:55.794Z,26.20
2018-05-12T11:47:24.282Z,26.20
2018-05-12T11:49:53.523Z,27.30
2018-05-12T11:52:22.051Z,27.30
2018-05-12T11:54:51.464Z,26.60
2018-05-12T11:57:20.089Z,26.60
2018-05-12T11:59:48.644Z,27.00
2018-05-12T12:02:17.172Z,26.70
2018-05-12T12:04:45.689Z,26.90
2018-05-12T12:07:14.136Z,27.20
2018-05-12T12:09:42.585Z,27.00
2018-05-12T12:12:11.070Z,27.20
2018-05-12T12:14:39.552Z,27.10
2018-05-12T12:17:08.928Z,25.90
2018-05-12T12:19:37.365Z,25.90
2018-05-12T12:22:06.060Z,26.10
2018-05-12T12:24:34.945Z,26.30
2018-05-12T12:27:04.236Z,26.30
2018-05-12T12:29:36.943Z,26.20
2018-05-12T12:32:06.372Z,26.50
2018-05-12T12:34:34.952Z,26.90
2018-05-12T12:37:03.705Z,26.70
2018-05-12T12:39:33.920Z,27.20
2018-05-12T12:42:03.612Z,27.60
2018-05-12T12:44:33.750Z,27.60
2018-05-12T12:47:03.466Z,27.80
2018-05-12T12:49:33.770Z,27.70
2018-05-12T12:52:03.540Z,28.20
2018-05-12T12:54:32.613Z,28.50
2018-05-12T12:57:01.502Z,28.80
2018-05-12T12:59:31.932Z,28.70
2018-05-12T13:02:01.495Z,28.50
2018-05-12T13:04:30.468Z,28.50
2018-05-12T13:07:01.053Z,28.50
2018-05-12T13:09:33.231Z,29.00
2018-05-12T13:12:06.683Z,29.20
2018-05-12T13:14:35.352Z,29.40
2018-05-12T13:17:09.333Z,28.70
2018-05-12T13:19:39.918Z,29.40
2018-05-12T13:22:08.671Z,29.40
2018-05-12T13:24:39.246Z,28.90
2018-05-12T13:27:40.305Z,29.40
2018-05-12T13:30:10.008Z,29.50
2018-05-12T13:33:02.706Z,29.60
2018-05-12T13:35:37.942Z,29.90
2018-05-12T13:38:07.795Z,29.30
2018-05-12T13:40:36.411Z,29.30
2018-05-12T13:43:05.083Z,29.20
2018-05-12T13:45:34.006Z,30.00
2018-05-12T13:48:12.399Z,30.30
2018-05-12T13:50:40.881Z,29.90
2018-05-12T13:53:10.170Z,30.30
2018-05-12T13:55:38.641Z,30.30
2018-05-12T13:58:07.422Z,30.40
2018-05-12T14:00:36.125Z,30.20
2018-05-12T14:03:05.024Z,30.40
2018-05-12T14:05:33.795Z,30.70
2018-05-12T14:08:10.436Z,30.60
2018-05-12T14:10:38.970Z,30.80
2018-05-12T14:13:07.691Z,30.70
2018-05-12T14:15:36.671Z,30.80
2018-05-12T14:18:05.159Z,30.80
2018-05-12T14:20:33.745Z,30.60
2018-05-12T14:23:05.479Z,30.70
2018-05-12T14:25:34.026Z,30.00
2018-05-12T14:28:02.685Z,30.40
2018-05-12T14:30:31.301Z,30.60
2018-05-12T14:32:59.863Z,30.80
2018-05-12T14:35:28.415Z,30.30
2018-05-12T14:37:56.946Z,29.60
2018-05-12T14:40:25.436Z,29.00
2018-05-12T14:42:53.943Z,28.60
2018-05-12T14:45:22.463Z,29.10
2018-05-12T14:47:51.044Z,28.20
2018-05-12T14:50:19.636Z,28.20
2018-05-12T14:52:48.209Z,28.10
2018-05-12T14:55:17.936Z,28.40
2018-05-12T14:57:46.840Z,28.40
2018-05-12T15:00:15.502Z,28.50
2018-05-12T15:02:48.364Z,28.40
2018-05-12T15:05:17.060Z,28.40
2018-05-12T15:07:47.105Z,27.80
2018-05-12T15:10:15.773Z,27.70
2018-05-12T15:12:44.554Z,27.30
2018-05-12T15:15:14.010Z,27.90
2018-05-12T15:17:43.704Z,28.40
2018-05-12T15:20:12.462Z,28.40
2018-05-12T15:22:41.247Z,27.90
2018-05-12T15:25:10.881Z,27.90
2018-05-12T15:27:39.780Z,27.70
2018-05-12T15:30:08.247Z,27.30
2018-05-12T15:32:36.752Z,27.20
2018-05-12T15:35:05.196Z,27.50
2018-05-12T15:37:34.471Z,27.60
2018-05-12T15:40:03.005Z,27.60
2018-05-12T15:42:31.633Z,27.50
2018-05-12T15:45:00.158Z,27.10
2018-05-12T15:47:28.600Z,27.20
2018-05-12T15:49:57.116Z,26.90
2018-05-12T15:52:25.539Z,26.80
2018-05-12T15:54:54.040Z,26.60
2018-05-12T15:57:22.549Z,26.60
2018-05-12T15:59:50.986Z,26.40
2018-05-12T16:02:19.445Z,26.30
2018-05-12T16:04:50.819Z,26.00
2018-05-12T16:07:19.260Z,25.90
2018-05-12T16:09:47.783Z,25.90
2018-05-12T16:12:16.529Z,26.10
2018-05-12T16:14:45.304Z,26.00
2018-05-12T16:17:18.030Z,26.00
2018-05-12T16:19:46.724Z,26.10
2018-05-12T16:22:15.425Z,25.90
2018-05-12T16:24:44.581Z,26.00
2018-05-12T16:27:17.261Z,26.00
2018-05-12T16:29:46.146Z,25.80
2018-05-12T16:32:14.843Z,25.80
2018-05-12T16:34:44.718Z,25.60
2018-05-12T16:37:13.504Z,25.80
2018-05-12T16:39:45.294Z,26.00
2018-05-12T16:42:19.701Z,25.80
2018-05-12T16:44:48.276Z,25.60
2018-05-12T16:47:16.861Z,25.80
2018-05-12T16:49:45.444Z,25.40
2018-05-12T16:52:14.349Z,25.30
2018-05-12T16:54:43.651Z,25.10
2018-05-12T16:57:16.132Z,25.00
2018-05-12T16:59:48.943Z,24.80
2018-05-12T17:02:17.569Z,24.80
2018-05-12T17:04:46.270Z,24.90
2018-05-12T17:07:15.046Z,24.60
2018-05-12T17:09:48.519Z,24.70
2018-05-12T17:12:17.118Z,24.80
2018-05-12T17:14:46.516Z,24.40
2018-05-12T17:17:15.298Z,24.30
2018-05-12T17:19:44.156Z,24.30
2018-05-12T17:22:17.366Z,24.20
2018-05-12T17:24:48.982Z,24.20
2018-05-12T17:27:17.609Z,24.20
2018-05-12T17:29:49.439Z,24.00
2018-05-12T17:32:18.065Z,23.90
2018-05-12T17:34:46.899Z,23.80
2018-05-12T17:37:18.888Z,23.80
2018-05-12T17:39:49.592Z,23.60
2018-05-12T17:42:19.508Z,23.60
2018-05-12T17:44:48.079Z,23.50
2018-05-12T17:47:17.126Z,23.60
2018-05-12T17:49:46.040Z,23.50
2018-05-12T17:52:14.856Z,23.50
2018-05-12T17:54:44.761Z,23.60
2018-05-12T17:57:13.589Z,23.30
2018-05-12T17:59:43.386Z,23.10
2018-05-12T18:02:12.566Z,23.10
2018-05-12T18:04:41.398Z,23.10
2018-05-12T18:07:13.594Z,23.10
2018-05-12T18:09:44.081Z,22.90
2018-05-12T18:12:23.695Z,22.90
2018-05-12T18:14:56.278Z,22.90
2018-05-12T18:17:25.286Z,22.80
2018-05-12T18:19:53.986Z,22.70
2018-05-12T18:22:23.565Z,22.60
2018-05-12T18:24:53.255Z,22.40
2018-05-12T18:27:22.107Z,22.40
2018-05-12T18:29:50.765Z,22.40
2018-05-12T18:32:19.279Z,22.40
2018-05-12T18:34:47.743Z,22.10
2018-05-12T18:37:16.220Z,22.00
2018-05-12T18:39:45.578Z,22.00
2018-05-12T18:42:14.197Z,22.00
2018-05-12T18:44:42.821Z,21.90
2018-05-12T18:47:11.378Z,21.80
2018-05-12T18:49:39.824Z,21.80
2018-05-12T18:52:31.370Z,21.60
2018-05-12T18:55:02.550Z,21.60
2018-05-12T18:57:31.078Z,21.60
2018-05-12T18:59:59.635Z,21.60
2018-05-12T19:02:28.264Z,21.40
2018-05-12T19:04:57.604Z,21.20
2018-05-12T19:07:26.117Z,21.10
2018-05-12T19:09:54.823Z,21.10
2018-05-12T19:12:23.311Z,21.10
2018-05-12T19:14:57.074Z,21.10
2018-05-12T19:17:25.530Z,21.00
2018-05-12T19:19:55.109Z,20.80
2018-05-12T19:22:23.904Z,20.80
2018-05-12T19:24:52.290Z,21.20
2018-05-12T19:27:20.855Z,21.40
2018-05-12T19:29:49.556Z,20.80
2018-05-12T19:32:18.185Z,20.50
2018-05-12T19:34:46.852Z,20.20
2018-05-12T19:37:15.451Z,20.20
2018-05-12T19:39:43.904Z,20.20
2018-05-12T19:42:12.381Z,20.50
2018-05-12T19:44:40.884Z,20.70
2018-05-12T19:47:09.374Z,20.50
2018-05-12T19:49:38.248Z,20.20
2018-05-12T19:52:06.752Z,20.20
2018-05-12T19:54:36.247Z,19.90
2018-05-12T19:57:04.739Z,19.90
2018-05-12T19:59:33.260Z,19.70
2018-05-12T20:02:01.761Z,19.70
2018-05-12T20:04:30.480Z,19.60
2018-05-12T20:06:59.482Z,19.50
2018-05-12T20:09:27.916Z,19.20
2018-05-12T20:11:56.499Z,19.00
2018-05-12T20:14:25.023Z,18.90
2018-05-12T20:16:53.536Z,18.90
2018-05-12T20:19:21.998Z,18.60
2018-05-12T20:21:50.727Z,19.00
2018-05-12T20:24:19.201Z,19.10
2018-05-12T20:26:47.717Z,18.90
2018-05-12T20:29:16.149Z,18.60
2018-05-12T20:31:44.610Z,18.50
2018-05-12T20:34:13.917Z,18.50
2018-05-12T20:36:42.364Z,18.50
2018-05-12T20:39:10.866Z,18.50
2018-05-12T20:41:39.328Z,18.50
2018-05-12T20:44:07.856Z,18.30
2018-05-12T20:46:36.350Z,18.10
2018-05-12T20:49:04.838Z,18.10
2018-05-12T20:51:33.325Z,18.10
2018-05-12T20:54:01.780Z,18.10
2018-05-12T20:56:30.263Z,17.90
2018-05-12T20:58:58.767Z,17.80
2018-05-12T21:01:27.258Z,17.70
2018-05-12T21:03:55.737Z,17.70
2018-05-12T21:06:24.235Z,17.80
2018-05-12T21:08:53.603Z,17.70
2018-05-12T21:11:22.090Z,17.70
2018-05-12T21:13:50.563Z,17.60
2018-05-12T21:16:19.029Z,17.70
2018-05-12T21:18:47.494Z,17.50
2018-05-12T21:21:16.873Z,17.40
2018-05-12T21:23:45.486Z,17.20
2018-05-12T21:26:13.889Z,17.10
2018-05-12T21:28:42.418Z,17.10
2018-05-12T21:31:10.992Z,17.20
2018-05-12T21:33:39.528Z,17.50
2018-05-12T21:36:08.007Z,17.20
2018-05-12T21:38:47.667Z,17.10
2018-05-12T21:41:18.425Z,16.90
2018-05-12T21:43:47.083Z,16.90
2018-05-12T21:46:15.598Z,16.80
2018-05-12T21:48:45.793Z,16.80
2018-05-12T21:51:14.256Z,16.80
2018-05-12T21:53:42.809Z,16.90
2018-05-12T21:56:11.297Z,17.00
2018-05-12T21:58:39.732Z,16.90
2018-05-12T22:01:08.210Z,17.00
2018-05-12T22:03:36.642Z,17.40
2018-05-12T22:06:05.185Z,17.30
2018-05-12T22:08:34.445Z,16.60
2018-05-12T22:11:02.890Z,16.60
2018-05-12T22:13:31.382Z,16.50
2018-05-12T22:15:59.885Z,16.40
2018-05-12T22:18:28.440Z,16.40
2018-05-12T22:20:57.763Z,16.60
2018-05-12T22:23:27.033Z,17.00
2018-05-12T22:25:55.519Z,17.00
2018-05-12T22:28:24.032Z,17.20
2018-05-12T22:30:52.507Z,17.50
2018-05-12T22:33:21.747Z,17.20
2018-05-12T22:35:50.191Z,17.20
2018-05-12T22:38:18.660Z,17.10
2018-05-12T22:40:47.888Z,17.30
2018-05-12T22:43:16.770Z,17.60
2018-05-12T22:45:45.266Z,17.80
2018-05-12T22:48:13.710Z,17.50
2018-05-12T22:50:42.178Z,17.40
2018-05-12T22:53:10.644Z,17.10
2018-05-12T22:55:39.084Z,16.70
2018-05-12T22:58:07.562Z,16.40
2018-05-12T23:00:36.014Z,16.40
2018-05-12T23:03:05.305Z,16.10
2018-05-12T23:05:33.874Z,16.00
2018-05-12T23:08:02.446Z,15.90
2018-05-12T23:10:30.932Z,15.80
2018-05-12T23:12:59.544Z,16.00
2018-05-12T23:15:28.012Z,16.00
2018-05-12T23:17:57.325Z,15.80
2018-05-12T23:20:25.802Z,15.80
2018-05-12T23:22:55.055Z,15.60
2018-05-12T23:25:23.487Z,15.50
2018-05-12T23:27:52.144Z,15.70
2018-05-12T23:30:21.375Z,15.80
2018-05-12T23:32:50.668Z,16.10
2018-05-12T23:35:19.244Z,16.10
2018-05-12T23:37:47.761Z,16.60
2018-05-12T23:40:16.395Z,16.90
2018-05-12T23:42:44.924Z,16.30
2018-05-12T23:45:13.383Z,15.90
2018-05-12T23:47:41.899Z,15.70
2018-05-12T23:50:10.365Z,15.60
2018-05-12T23:52:38.812Z,15.40
2018-05-12T23:55:07.360Z,15.50
2018-05-12T23:57:35.977Z,15.50
